Terminal Aerodrome Forecast
Issued by NWS

Home | Current Version | Previous Version | Text Only | Print | Product List | Glossary On
Versions: 1 2 3 4 5 6 7 8 9 10 11 12 13
000
FTUS45 KVEF 240536
TAFDAG
TAF
KDAG 240536Z 2406/2506 24020G30KT P6SM FEW100
     FM240900 25015G22KT P6SM SCT100
     FM241200 28011KT P6SM SCT100
     FM250200 25014G24KT P6SM SCT100=

USA.gov is the U.S. government's official web portal to all federal, state and local government web resources and services.